createdAt,value
2022-10-20T04:02:39.704Z,10.01
2022-10-20T04:05:07.129Z,10.05
2022-10-20T04:07:33.659Z,10.03
2022-10-20T04:10:02.445Z,10.05
2022-10-20T04:12:29.842Z,10.05
2022-10-20T04:14:56.419Z,10.03
2022-10-20T04:17:23.176Z,10.06
2022-10-20T04:19:49.690Z,10.08
2022-10-20T04:22:16.663Z,10.10
2022-10-20T04:24:43.535Z,10.13
2022-10-20T04:27:10.437Z,10.12
2022-10-20T04:29:37.729Z,10.13
2022-10-20T04:32:04.578Z,10.15
2022-10-20T04:34:31.216Z,10.15
2022-10-20T04:36:58.314Z,10.18
2022-10-20T04:39:25.528Z,10.20
2022-10-20T04:41:52.082Z,10.35
2022-10-20T04:44:18.628Z,10.25
2022-10-20T04:46:45.253Z,10.26
2022-10-20T04:49:11.783Z,10.26
2022-10-20T04:51:38.334Z,10.30
2022-10-20T04:56:36.520Z,10.32
2022-10-20T04:59:03.960Z,10.32
2022-10-20T05:01:31.199Z,10.32
2022-10-20T05:03:58.130Z,10.32
2022-10-20T05:06:30.996Z,10.35
2022-10-20T05:09:00.466Z,10.32
2022-10-20T05:11:29.812Z,10.32
2022-10-20T05:13:56.966Z,10.32
2022-10-20T05:16:24.204Z,10.33
2022-10-20T05:18:53.555Z,10.30
2022-10-20T05:21:23.763Z,10.35
2022-10-20T05:23:56.414Z,10.39
2022-10-20T05:26:23.603Z,10.39
2022-10-20T05:28:51.695Z,10.40
2022-10-20T05:31:21.015Z,10.35
2022-10-20T05:33:53.947Z,10.39
2022-10-20T05:36:23.863Z,10.43
2022-10-20T05:38:52.264Z,10.37
2022-10-20T05:41:21.796Z,10.36
2022-10-20T05:44:03.370Z,10.32
2022-10-20T05:46:32.497Z,10.42
2022-10-20T05:49:01.037Z,10.39
2022-10-20T05:51:30.892Z,10.40
2022-10-20T05:53:59.226Z,10.39
2022-10-20T05:56:27.349Z,10.39
2022-10-20T05:58:53.951Z,10.47
2022-10-20T06:01:26.315Z,10.40
2022-10-20T06:03:57.507Z,10.42
2022-10-20T06:06:26.762Z,10.33
2022-10-20T06:08:53.987Z,10.37
2022-10-20T06:11:22.232Z,10.32
2022-10-20T06:13:51.891Z,10.28
2022-10-20T06:16:25.405Z,10.30
2022-10-20T06:18:52.449Z,10.32
2022-10-20T06:21:22.066Z,10.33
2022-10-20T06:23:49.045Z,10.29
2022-10-20T06:26:18.184Z,10.37
2022-10-20T06:28:47.104Z,10.37
2022-10-20T06:31:19.160Z,10.49
2022-10-20T06:33:46.683Z,10.57
2022-10-20T06:36:14.103Z,10.59
2022-10-20T06:38:41.450Z,10.60
2022-10-20T06:41:10.476Z,10.59
2022-10-20T06:43:37.209Z,10.60
2022-10-20T06:46:05.905Z,10.61
2022-10-20T06:48:35.164Z,10.67
2022-10-20T06:51:06.544Z,10.80
2022-10-20T06:53:34.849Z,10.71
2022-10-20T06:56:06.231Z,10.81
2022-10-20T06:58:34.518Z,10.76
2022-10-20T07:01:09.978Z,10.77
2022-10-20T07:03:38.770Z,10.84
2022-10-20T07:06:07.069Z,10.88
2022-10-20T07:08:36.313Z,10.88
2022-10-20T07:11:08.947Z,11.05
2022-10-20T07:13:37.655Z,11.10
2022-10-20T07:16:05.694Z,11.01
2022-10-20T07:18:32.791Z,10.98
2022-10-20T07:21:01.836Z,11.05
2022-10-20T07:23:30.256Z,11.11
2022-10-20T07:26:05.656Z,11.24
2022-10-20T07:28:33.086Z,11.26
2022-10-20T07:31:09.157Z,11.29
2022-10-20T07:33:36.070Z,11.35
2022-10-20T07:36:18.562Z,11.36
2022-10-20T07:38:46.828Z,11.36
2022-10-20T07:41:14.244Z,11.49
2022-10-20T07:43:42.220Z,11.45
2022-10-20T07:46:10.639Z,11.52
2022-10-20T07:48:37.596Z,11.53
2022-10-20T07:51:24.975Z,11.59
2022-10-20T07:53:58.120Z,11.69
2022-10-20T07:56:35.782Z,11.73
2022-10-20T07:59:03.259Z,11.77
2022-10-20T08:01:30.153Z,11.82
2022-10-20T08:03:56.911Z,11.95
2022-10-20T08:06:23.615Z,12.01
2022-10-20T08:08:50.425Z,12.07
2022-10-20T08:11:17.128Z,12.16
2022-10-20T08:13:43.973Z,12.30
2022-10-20T08:16:16.236Z,12.34
2022-10-20T08:21:36.011Z,12.46
2022-10-20T08:21:36.908Z,12.38
2022-10-20T08:24:02.852Z,12.37
2022-10-20T08:26:29.568Z,12.45
2022-10-20T08:28:56.068Z,12.45
2022-10-20T08:31:23.438Z,12.62
2022-10-20T08:33:52.857Z,12.59
2022-10-20T08:36:20.902Z,12.69
2022-10-20T08:38:48.468Z,12.75
2022-10-20T08:41:21.928Z,12.75
2022-10-20T08:43:51.027Z,12.95
2022-10-20T08:46:20.648Z,12.86
2022-10-20T08:48:48.079Z,12.92
2022-10-20T08:51:26.787Z,13.09
2022-10-20T08:53:56.938Z,13.26
2022-10-20T08:56:25.905Z,13.41
2022-10-20T08:58:53.154Z,13.50
2022-10-20T09:01:26.979Z,13.51
2022-10-20T09:04:16.445Z,13.53
2022-10-20T09:06:45.599Z,13.58
2022-10-20T09:09:18.257Z,13.62
2022-10-20T09:11:45.455Z,13.96
2022-10-20T09:14:12.716Z,13.96
2022-10-20T09:16:58.684Z,13.98
2022-10-20T09:19:27.198Z,14.12
2022-10-20T09:21:57.774Z,14.15
2022-10-20T09:24:27.941Z,14.38
2022-10-20T09:26:59.120Z,14.44
2022-10-20T09:29:37.519Z,14.41
2022-10-20T09:32:44.812Z,14.38
2022-10-20T09:35:17.220Z,14.32
2022-10-20T09:37:49.771Z,14.19
2022-10-20T09:40:18.069Z,14.25
2022-10-20T09:42:54.537Z,14.23
2022-10-20T09:45:23.814Z,14.30
2022-10-20T09:47:56.486Z,14.29
2022-10-20T09:50:33.795Z,14.48
2022-10-20T09:53:04.184Z,14.47
2022-10-20T09:55:37.579Z,14.50
2022-10-20T09:58:05.945Z,14.43
2022-10-20T10:00:37.661Z,14.33
2022-10-20T10:03:22.759Z,14.30
2022-10-20T10:05:58.066Z,14.34
2022-10-20T10:08:28.940Z,14.43
2022-10-20T10:11:00.344Z,14.43
2022-10-20T10:13:30.510Z,14.29
2022-10-20T10:16:08.740Z,14.48
2022-10-20T10:18:37.404Z,14.37
2022-10-20T10:21:09.974Z,14.32
2022-10-20T10:23:49.640Z,14.29
2022-10-20T10:26:37.605Z,14.33
2022-10-20T10:29:04.879Z,14.38
2022-10-20T10:31:33.509Z,14.32
2022-10-20T10:34:12.336Z,14.36
2022-10-20T10:36:38.882Z,14.33
2022-10-20T10:39:10.693Z,14.29
2022-10-20T10:42:00.875Z,14.27
2022-10-20T10:44:30.865Z,14.23
2022-10-20T10:47:16.872Z,14.22
2022-10-20T10:50:03.703Z,14.26
2022-10-20T10:52:39.342Z,14.23
2022-10-20T10:55:44.088Z,14.22
2022-10-20T10:58:21.092Z,14.15
2022-10-20T11:01:00.165Z,14.15
2022-10-20T11:03:54.515Z,14.06
2022-10-20T11:06:21.028Z,14.09
2022-10-20T11:09:13.610Z,14.02
2022-10-20T11:11:52.723Z,14.10
2022-10-20T11:14:25.348Z,14.10
2022-10-20T11:17:00.494Z,14.09
2022-10-20T11:19:39.763Z,14.06
2022-10-20T11:22:20.310Z,14.02
2022-10-20T11:24:52.929Z,14.05
2022-10-20T11:27:25.750Z,14.06
2022-10-20T11:29:57.940Z,14.05
2022-10-20T11:32:39.569Z,14.09
2022-10-20T11:35:33.526Z,14.10
2022-10-20T11:38:18.671Z,14.17
2022-10-20T11:40:51.258Z,14.32
2022-10-20T11:43:40.122Z,14.25
2022-10-20T11:46:11.231Z,14.22
2022-10-20T11:48:45.858Z,14.34
2022-10-20T11:51:36.187Z,14.46
2022-10-20T11:54:40.543Z,14.51
2022-10-20T11:57:25.261Z,14.53
2022-10-20T12:03:14.394Z,14.38
2022-10-20T12:05:53.219Z,14.34
2022-10-20T12:08:44.749Z,14.30
2022-10-20T12:11:27.340Z,14.29
2022-10-20T12:13:59.601Z,14.30
2022-10-20T12:16:54.054Z,14.34
2022-10-20T12:19:29.682Z,14.44
2022-10-20T12:22:13.986Z,14.47
2022-10-20T12:24:49.900Z,14.65
2022-10-20T12:27:25.429Z,14.85
2022-10-20T12:29:54.632Z,15.11
2022-10-20T12:32:38.445Z,15.22
2022-10-20T12:35:11.497Z,15.42
2022-10-20T12:37:42.156Z,15.36
2022-10-20T12:40:11.242Z,15.74
2022-10-20T12:42:47.256Z,15.87
2022-10-20T12:45:19.667Z,15.69
2022-10-20T12:47:52.260Z,15.57
2022-10-20T12:50:39.150Z,15.64
2022-10-20T12:53:32.644Z,15.74
2022-10-20T12:56:10.352Z,15.83
2022-10-20T12:58:39.010Z,15.86
2022-10-20T13:01:08.734Z,16.05
2022-10-20T13:03:37.231Z,15.98
2022-10-20T13:06:23.786Z,15.98
2022-10-20T13:09:10.352Z,15.90
2022-10-20T13:11:40.904Z,15.93
2022-10-20T13:14:20.256Z,15.97
2022-10-20T13:16:51.022Z,16.00
2022-10-20T13:19:24.856Z,16.05
2022-10-20T13:21:51.559Z,16.05
2022-10-20T13:24:44.993Z,16.08
2022-10-20T13:27:12.002Z,16.01
2022-10-20T13:29:43.120Z,16.00
2022-10-20T13:32:28.583Z,16.01
2022-10-20T13:35:04.782Z,16.21
2022-10-20T13:37:38.090Z,16.26
2022-10-20T13:40:24.077Z,16.45
2022-10-20T13:43:02.761Z,16.77
2022-10-20T13:45:53.726Z,17.48
2022-10-20T13:48:32.267Z,18.76
2022-10-20T13:51:05.874Z,18.26
2022-10-20T13:53:37.316Z,17.72
2022-10-20T13:56:19.021Z,17.44
2022-10-20T13:59:18.733Z,17.34
2022-10-20T14:01:54.381Z,17.45
2022-10-20T14:04:31.544Z,17.35
2022-10-20T14:07:13.291Z,17.38
2022-10-20T14:09:45.248Z,17.59
2022-10-20T14:12:22.825Z,17.66
2022-10-20T14:14:49.517Z,17.61
2022-10-20T14:17:21.683Z,17.59
2022-10-20T14:19:48.642Z,17.59
2022-10-20T14:22:15.119Z,17.68
2022-10-20T14:24:47.251Z,17.97
2022-10-20T14:27:26.947Z,18.02
2022-10-20T14:29:54.366Z,18.07
2022-10-20T14:32:25.857Z,18.00
2022-10-20T14:35:01.678Z,18.16
2022-10-20T14:37:35.657Z,18.48
2022-10-20T14:40:06.496Z,20.02
2022-10-20T14:42:34.075Z,20.49
2022-10-20T14:45:03.285Z,20.85
2022-10-20T14:47:40.045Z,20.24
2022-10-20T14:50:07.309Z,19.45
2022-10-20T14:52:38.581Z,19.08
2022-10-20T14:55:37.009Z,18.62
2022-10-20T14:58:04.107Z,18.43
2022-10-20T15:00:36.792Z,18.44
2022-10-20T15:03:07.508Z,18.73
2022-10-20T15:05:36.364Z,18.61
2022-10-20T15:08:21.630Z,18.45
2022-10-20T15:10:48.375Z,18.33
2022-10-20T15:13:27.998Z,18.30
2022-10-20T15:15:56.325Z,18.22
2022-10-20T15:18:24.808Z,18.23
2022-10-20T15:20:53.376Z,18.12
2022-10-20T15:23:22.679Z,18.07
2022-10-20T15:26:00.412Z,18.03
2022-10-20T15:28:43.941Z,17.97
2022-10-20T15:31:13.320Z,17.87
2022-10-20T15:33:40.604Z,17.85
2022-10-20T15:36:20.720Z,17.75
2022-10-20T15:38:50.926Z,17.81
2022-10-20T15:41:30.091Z,17.68
2022-10-20T15:43:56.987Z,17.55
2022-10-20T15:46:23.537Z,17.48
2022-10-20T15:48:50.070Z,17.45
2022-10-20T15:51:22.521Z,17.32
2022-10-20T15:53:49.995Z,17.34
2022-10-20T15:56:17.367Z,17.25
2022-10-20T15:58:44.421Z,17.18
2022-10-20T16:01:16.899Z,17.08
2022-10-20T16:03:44.148Z,17.07
2022-10-20T16:06:13.521Z,17.03
2022-10-20T16:08:41.573Z,16.97
2022-10-20T16:11:08.963Z,16.91
2022-10-20T16:13:48.896Z,16.87
2022-10-20T16:16:18.853Z,16.77
2022-10-20T16:18:45.708Z,16.73
2022-10-20T16:21:12.604Z,16.70
2022-10-20T16:23:42.328Z,16.65
2022-10-20T16:26:12.580Z,16.63
2022-10-20T16:28:39.121Z,16.67
2022-10-20T16:31:10.934Z,16.65
2022-10-20T16:33:37.902Z,16.56
2022-10-20T16:38:40.184Z,16.45
2022-10-20T16:41:10.213Z,16.36
2022-10-20T16:43:38.754Z,16.30
2022-10-20T16:46:06.875Z,16.28
2022-10-20T16:48:35.703Z,16.18
2022-10-20T16:51:10.094Z,16.15
2022-10-20T16:53:37.110Z,16.14
2022-10-20T16:56:04.621Z,16.25
2022-10-20T16:58:31.164Z,16.12
2022-10-20T17:01:04.253Z,16.11
2022-10-20T17:03:31.157Z,16.12
2022-10-20T17:05:59.652Z,16.08
2022-10-20T17:08:27.939Z,16.17
2022-10-20T17:10:56.706Z,16.14
2022-10-20T17:13:23.288Z,16.15
2022-10-20T17:15:50.206Z,16.14
2022-10-20T17:18:17.220Z,16.09
2022-10-20T17:20:43.753Z,16.02
2022-10-20T17:23:10.307Z,15.97
2022-10-20T17:25:37.478Z,15.94
2022-10-20T17:28:04.129Z,15.96
2022-10-20T17:30:30.621Z,15.94
2022-10-20T17:32:57.138Z,15.87
2022-10-20T17:35:23.663Z,15.94
2022-10-20T17:37:50.113Z,15.93
2022-10-20T17:42:44.001Z,15.93
2022-10-20T17:45:10.686Z,15.86
2022-10-20T17:47:37.205Z,15.81
2022-10-20T17:50:04.262Z,15.77
2022-10-20T17:52:30.793Z,15.73
2022-10-20T17:54:57.256Z,15.73
2022-10-20T17:57:24.051Z,15.64
2022-10-20T17:59:53.424Z,15.59
2022-10-20T18:02:23.761Z,15.59
2022-10-20T18:04:51.122Z,15.57
2022-10-20T18:07:17.686Z,15.54
2022-10-20T18:09:44.603Z,15.60
2022-10-20T18:12:11.224Z,15.53
2022-10-20T18:14:37.710Z,15.52
2022-10-20T18:17:04.232Z,15.47
2022-10-20T18:19:30.729Z,15.49
2022-10-20T18:21:57.300Z,15.49
2022-10-20T18:24:24.001Z,15.50
2022-10-20T18:26:50.507Z,15.56
2022-10-20T18:29:17.351Z,15.46
2022-10-20T18:31:45.473Z,15.46
2022-10-20T18:34:14.688Z,15.42
2022-10-20T18:36:44.950Z,15.39
2022-10-20T18:39:13.603Z,15.36
2022-10-20T18:41:41.128Z,15.35
2022-10-20T18:44:12.396Z,15.36
2022-10-20T18:46:39.650Z,15.31
2022-10-20T18:49:07.429Z,15.33
2022-10-20T18:51:34.764Z,15.33
2022-10-20T18:54:02.954Z,15.29
2022-10-20T18:56:30.531Z,15.28
2022-10-20T18:58:59.299Z,15.28
2022-10-20T19:01:28.851Z,15.35
2022-10-20T19:03:57.077Z,15.28
2022-10-20T19:06:27.325Z,15.25
2022-10-20T19:08:59.715Z,15.23
2022-10-20T19:11:28.669Z,15.33
2022-10-20T19:13:56.006Z,15.25
2022-10-20T19:16:26.176Z,15.21
2022-10-20T19:18:54.109Z,15.26
2022-10-20T19:21:21.786Z,15.23
2022-10-20T19:23:51.885Z,15.19
2022-10-20T19:26:25.051Z,15.15
2022-10-20T19:28:58.449Z,15.12
2022-10-20T19:31:25.425Z,15.15
2022-10-20T19:33:54.645Z,15.11
2022-10-20T19:36:21.761Z,15.16
2022-10-20T19:38:48.500Z,15.11
2022-10-20T19:41:15.505Z,15.11
2022-10-20T19:43:42.179Z,15.06
2022-10-20T19:46:12.479Z,15.05
2022-10-20T19:48:39.307Z,15.06
2022-10-20T19:51:06.503Z,15.05
2022-10-20T19:53:34.031Z,15.02
2022-10-20T19:56:00.552Z,15.02
2022-10-20T19:58:27.071Z,15.02
2022-10-20T20:00:57.799Z,15.01
2022-10-20T20:03:24.907Z,15.05
2022-10-20T20:06:16.129Z,15.05
2022-10-20T20:09:04.717Z,15.02
2022-10-20T20:11:31.491Z,15.08
2022-10-20T20:14:00.736Z,15.05
2022-10-20T20:16:28.801Z,15.03
2022-10-20T20:18:55.496Z,15.01
2022-10-20T20:21:23.258Z,15.02
2022-10-20T20:24:00.495Z,15.03
2022-10-20T20:26:33.270Z,15.01
2022-10-20T20:29:01.381Z,15.03
2022-10-20T20:31:28.783Z,14.98
2022-10-20T20:33:56.911Z,14.99
2022-10-20T20:36:26.151Z,14.96
2022-10-20T20:38:55.171Z,14.99
2022-10-20T20:41:26.058Z,14.99
2022-10-20T20:43:52.730Z,14.96
2022-10-20T20:46:21.384Z,14.92
2022-10-20T20:48:47.942Z,14.88
2022-10-20T20:51:15.435Z,14.92
2022-10-20T20:53:42.018Z,14.88
2022-10-20T20:56:11.026Z,14.89
2022-10-20T20:58:38.183Z,14.91
2022-10-20T21:01:08.704Z,14.87
2022-10-20T21:03:36.315Z,14.81
2022-10-20T21:06:12.392Z,14.81
2022-10-20T21:08:41.279Z,14.82
2022-10-20T21:11:13.085Z,14.74
2022-10-20T21:13:41.034Z,14.74
2022-10-20T21:16:14.761Z,14.81
2022-10-20T21:18:42.800Z,14.75
2022-10-20T21:21:30.366Z,14.70
2022-10-20T21:23:57.911Z,14.71
2022-10-20T21:26:25.724Z,14.71
2022-10-20T21:28:53.087Z,14.71
2022-10-20T21:31:22.038Z,14.65
2022-10-20T21:33:54.118Z,14.70
2022-10-20T21:36:21.555Z,14.61
2022-10-20T21:38:48.885Z,14.59
2022-10-20T21:41:21.128Z,14.60
2022-10-20T21:43:50.352Z,14.60
2022-10-20T21:46:22.276Z,14.64
2022-10-20T21:48:50.768Z,14.64
2022-10-20T21:51:21.772Z,14.63
2022-10-20T21:53:48.850Z,14.65
2022-10-20T21:56:16.070Z,14.61
2022-10-20T21:58:42.918Z,14.61
